createdAt,value
2019-04-22T03:47:19.439Z,39.80
2019-04-22T03:59:48.541Z,43.20
2019-04-22T04:02:43.499Z,43.70
2019-04-22T04:05:10.478Z,43.70
2019-04-22T04:08:00.766Z,43.80
2019-04-22T04:12:42.102Z,44.40
2019-04-22T04:15:13.939Z,44.80
2019-04-22T04:17:44.186Z,45.00
2019-04-22T04:20:24.364Z,45.30
2019-04-22T04:23:05.711Z,45.00
2019-04-22T04:28:05.281Z,45.00
2019-04-22T04:37:45.870Z,44.80
2019-04-22T04:40:20.915Z,45.80
2019-04-22T04:42:46.065Z,45.90
2019-04-22T04:50:10.326Z,45.80
2019-04-22T04:55:20.905Z,43.80
2019-04-22T05:02:50.453Z,43.20
2019-04-22T05:07:41.728Z,40.60
2019-04-22T05:15:11.233Z,43.70
2019-04-22T05:20:12.955Z,42.80
2019-04-22T05:25:04.769Z,42.90
2019-04-22T05:27:39.755Z,42.30
2019-04-22T05:30:19.812Z,40.30
2019-04-22T05:32:37.304Z,44.10
2019-04-22T05:35:01.864Z,42.80
2019-04-22T05:37:33.808Z,44.20
2019-04-22T05:40:14.881Z,44.10
2019-04-22T05:42:46.302Z,45.10
2019-04-22T05:45:08.247Z,45.10
2019-04-22T05:47:46.346Z,44.60
2019-04-22T05:49:54.966Z,43.40
2019-04-22T05:52:29.946Z,42.40
2019-04-22T05:55:02.469Z,41.40
2019-04-22T05:57:35.715Z,42.90
2019-04-22T06:00:01.611Z,41.70
2019-04-22T06:02:41.717Z,41.20
2019-04-22T06:05:01.667Z,39.90
2019-04-22T06:07:29.514Z,40.70
2019-04-22T06:10:06.723Z,40.40
2019-04-22T06:12:23.415Z,40.90
2019-04-22T06:15:01.179Z,43.70
2019-04-22T06:17:35.424Z,42.80
2019-04-22T06:19:57.510Z,40.80
2019-04-22T06:22:40.038Z,40.00
2019-04-22T06:25:01.091Z,39.90
2019-04-22T06:27:30.803Z,37.60
2019-04-22T06:29:54.976Z,36.10
2019-04-22T06:34:59.474Z,35.10
2019-04-22T06:37:29.349Z,34.40
2019-04-22T06:39:56.949Z,34.40
2019-04-22T06:42:29.029Z,34.10
2019-04-22T06:45:02.743Z,33.60
2019-04-22T06:47:39.988Z,33.20
2019-04-22T06:49:57.037Z,32.30
2019-04-22T06:52:22.690Z,31.80
2019-04-22T06:54:54.507Z,31.60
2019-04-22T06:57:25.488Z,32.70
2019-04-22T06:59:58.793Z,32.40
2019-04-22T07:02:23.817Z,32.40
2019-04-22T07:04:58.256Z,32.90
2019-04-22T07:07:43.059Z,32.70
2019-04-22T07:09:57.449Z,32.80
2019-04-22T07:12:24.679Z,33.10
2019-04-22T07:14:55.824Z,33.30
2019-04-22T07:17:22.079Z,33.10
2019-04-22T07:19:49.550Z,33.20
2019-04-22T07:22:22.822Z,33.30
2019-04-22T07:24:55.895Z,33.70
2019-04-22T07:27:25.796Z,33.90
2019-04-22T07:29:57.780Z,33.70
2019-04-22T07:32:29.369Z,34.10
2019-04-22T07:34:52.332Z,34.20
2019-04-22T07:39:45.622Z,33.20
2019-04-22T07:42:30.035Z,33.20
2019-04-22T07:44:51.044Z,33.30
2019-04-22T07:47:29.495Z,33.30
2019-04-22T07:49:54.260Z,33.40
2019-04-22T07:52:20.363Z,33.80
2019-04-22T07:54:50.402Z,32.60
2019-04-22T07:57:20.169Z,33.20
2019-04-22T07:59:54.181Z,33.90
2019-04-22T08:02:16.031Z,33.70
2019-04-22T08:05:03.772Z,34.90
2019-04-22T08:07:22.609Z,33.80
2019-04-22T08:09:57.582Z,33.30
2019-04-22T08:12:11.756Z,34.00
2019-04-22T08:14:50.084Z,34.00
2019-04-22T08:17:38.869Z,34.40
2019-04-22T08:19:48.460Z,33.60
2019-04-22T08:22:14.375Z,34.20
2019-04-22T08:24:47.284Z,34.10
2019-04-22T08:27:15.215Z,34.80
2019-04-22T08:29:52.463Z,33.80
2019-04-22T08:32:14.211Z,33.50
2019-04-22T08:34:42.627Z,33.50
2019-04-22T08:39:40.656Z,34.40
2019-04-22T08:42:27.432Z,34.50
2019-04-22T08:47:19.176Z,32.90
2019-04-22T08:49:50.466Z,33.80
2019-04-22T08:52:16.305Z,34.10
2019-04-22T08:54:44.920Z,33.70
2019-04-22T08:57:20.436Z,33.50
2019-04-22T08:59:43.174Z,33.60
2019-04-22T09:02:19.954Z,33.50
2019-04-22T09:04:42.131Z,34.20
2019-04-22T09:07:21.166Z,34.60
2019-04-22T09:09:45.806Z,33.70
2019-04-22T09:12:14.709Z,33.70
2019-04-22T09:14:41.769Z,34.70
2019-04-22T09:17:18.288Z,34.30
2019-04-22T09:19:40.479Z,34.20
2019-04-22T09:22:15.467Z,33.50
2019-04-22T09:24:44.171Z,33.10
2019-04-22T09:27:18.128Z,32.90
2019-04-22T09:29:40.081Z,33.60
2019-04-22T09:32:15.417Z,33.30
2019-04-22T09:34:39.878Z,33.60
2019-04-22T09:37:20.745Z,33.60
2019-04-22T09:39:41.491Z,34.00
2019-04-22T09:42:24.210Z,32.60
2019-04-22T09:44:40.253Z,32.70
2019-04-22T09:47:06.227Z,33.20
2019-04-22T09:49:46.889Z,33.30
2019-04-22T09:52:14.869Z,34.10
2019-04-22T09:54:49.627Z,33.40
2019-04-22T09:57:01.548Z,33.80
2019-04-22T09:59:37.678Z,32.40
2019-04-22T10:02:21.963Z,32.80
2019-04-22T10:04:33.522Z,33.80
2019-04-22T10:07:04.276Z,33.40
2019-04-22T10:09:52.844Z,33.60
2019-04-22T10:12:02.227Z,32.40
2019-04-22T10:14:39.952Z,31.80
2019-04-22T10:17:00.742Z,31.70
2019-04-22T10:19:39.389Z,32.50
2019-04-22T10:22:07.335Z,32.20
2019-04-22T10:24:37.033Z,32.40
2019-04-22T10:27:02.066Z,32.90
2019-04-22T10:29:36.767Z,32.20
2019-04-22T10:32:01.144Z,31.60
2019-04-22T10:34:19.182Z,31.70
2019-04-22T10:36:37.880Z,31.30
2019-04-22T10:39:06.574Z,31.70
2019-04-22T10:41:34.827Z,32.80
2019-04-22T10:44:03.423Z,31.80
2019-04-22T10:46:31.574Z,31.50
2019-04-22T10:48:59.998Z,32.20
2019-04-22T10:51:28.694Z,31.60
2019-04-22T10:53:57.623Z,30.90
2019-04-22T10:56:27.121Z,31.40
2019-04-22T10:58:56.264Z,32.10
2019-04-22T11:01:25.668Z,32.60
2019-04-22T11:03:55.016Z,30.30
2019-04-22T11:06:23.368Z,31.70
2019-04-22T11:08:57.381Z,31.30
2019-04-22T11:11:32.628Z,31.50
2019-04-22T11:13:51.900Z,30.60
2019-04-22T11:16:21.501Z,29.90
2019-04-22T11:18:49.766Z,28.90
2019-04-22T11:21:18.008Z,29.00
2019-04-22T11:23:46.915Z,29.30
2019-04-22T11:26:15.508Z,28.90
2019-04-22T11:28:43.715Z,28.60
2019-04-22T11:31:12.485Z,29.60
2019-04-22T11:33:40.681Z,31.00
2019-04-22T11:36:10.148Z,30.00
2019-04-22T11:38:45.905Z,29.20
2019-04-22T11:41:09.278Z,30.80
2019-04-22T11:43:38.600Z,30.90
2019-04-22T11:46:07.291Z,31.10
2019-04-22T11:48:35.920Z,31.30
2019-04-22T11:51:04.452Z,30.30
2019-04-22T11:53:32.518Z,31.30
2019-04-22T11:56:00.612Z,31.90
2019-04-22T11:58:28.887Z,31.00
2019-04-22T12:00:57.180Z,31.20
2019-04-22T12:03:25.397Z,30.70
2019-04-22T12:05:53.441Z,31.80
2019-04-22T12:08:22.773Z,30.40
2019-04-22T12:10:56.362Z,30.90
2019-04-22T12:13:21.859Z,30.70
2019-04-22T12:15:51.158Z,31.30
2019-04-22T12:18:19.581Z,31.70
2019-04-22T12:20:47.910Z,31.80
2019-04-22T12:23:17.028Z,31.10
2019-04-22T12:25:53.662Z,31.00
2019-04-22T12:28:15.237Z,30.90
2019-04-22T12:30:43.653Z,30.30
2019-04-22T12:33:14.572Z,29.80
2019-04-22T12:35:42.208Z,29.80
2019-04-22T12:38:14.359Z,29.80
2019-04-22T12:40:49.389Z,30.50
2019-04-22T12:43:14.895Z,30.50
2019-04-22T12:45:42.534Z,30.10
2019-04-22T12:48:10.595Z,31.00
2019-04-22T12:50:43.429Z,30.40
2019-04-22T12:53:11.337Z,30.40
2019-04-22T12:55:39.692Z,29.60
2019-04-22T12:58:07.778Z,29.70
2019-04-22T13:00:38.342Z,30.60
2019-04-22T13:03:07.267Z,30.40
2019-04-22T13:05:35.431Z,30.70
2019-04-22T13:08:03.495Z,29.80
2019-04-22T13:10:41.583Z,29.80
2019-04-22T13:13:02.773Z,29.40
2019-04-22T13:15:30.924Z,29.20
2019-04-22T13:18:07.200Z,28.70
2019-04-22T13:20:30.469Z,29.00
2019-04-22T13:22:58.826Z,29.40
2019-04-22T13:25:28.835Z,29.80
2019-04-22T13:27:57.489Z,29.30
2019-04-22T13:30:32.647Z,29.40
2019-04-22T13:33:00.967Z,29.90
2019-04-22T13:35:29.980Z,29.70
2019-04-22T13:37:59.360Z,28.50
2019-04-22T13:40:28.874Z,28.60
2019-04-22T13:42:57.001Z,28.20
2019-04-22T13:45:25.630Z,27.10
2019-04-22T13:48:11.486Z,27.40
2019-04-22T13:53:41.992Z,28.00
2019-04-22T13:55:51.359Z,27.10
2019-04-22T13:58:10.507Z,27.70
2019-04-22T14:00:26.956Z,26.80
2019-04-22T14:03:13.054Z,26.50
2019-04-22T14:05:42.816Z,26.90
2019-04-22T14:08:12.637Z,26.70
2019-04-22T14:10:42.631Z,26.30
2019-04-22T14:13:14.205Z,26.90
2019-04-22T14:15:44.016Z,26.80
2019-04-22T14:18:12.836Z,26.70
2019-04-22T14:20:41.056Z,27.10
2019-04-22T14:23:11.727Z,26.50
2019-04-22T14:25:40.830Z,26.30
2019-04-22T14:28:13.639Z,26.50
2019-04-22T14:30:38.849Z,27.10
2019-04-22T14:35:50.030Z,27.30
2019-04-22T14:38:18.427Z,27.40
2019-04-22T14:40:48.183Z,27.50
2019-04-22T14:43:37.540Z,27.20
2019-04-22T14:46:15.457Z,27.20
2019-04-22T14:48:41.910Z,27.80
2019-04-22T14:51:10.212Z,27.50
2019-04-22T14:53:40.177Z,27.70
2019-04-22T14:56:16.083Z,27.10
2019-04-22T14:58:53.028Z,27.90
2019-04-22T15:01:06.807Z,27.50
2019-04-22T15:03:46.758Z,28.10
2019-04-22T15:06:36.205Z,27.80
2019-04-22T15:09:34.582Z,26.80
2019-04-22T15:12:20.688Z,26.90
2019-04-22T15:20:54.272Z,27.80
2019-04-22T15:23:22.540Z,27.70
2019-04-22T15:25:52.787Z,26.60
2019-04-22T15:28:21.705Z,27.30
2019-04-22T15:30:51.192Z,26.10
2019-04-22T15:33:19.551Z,26.30
2019-04-22T15:35:49.353Z,26.40
2019-04-22T15:38:22.187Z,27.20
2019-04-22T15:40:49.019Z,26.70
2019-04-22T15:43:17.243Z,27.40
2019-04-22T15:45:46.587Z,27.40
2019-04-22T15:48:14.997Z,27.60
2019-04-22T15:50:46.666Z,27.70
2019-04-22T15:53:15.868Z,27.70
2019-04-22T15:55:44.941Z,28.50
2019-04-22T15:58:13.392Z,27.70
2019-04-22T16:00:54.108Z,27.90
2019-04-22T16:03:12.545Z,27.60
2019-04-22T16:05:41.842Z,28.10
2019-04-22T16:08:10.839Z,28.20
2019-04-22T16:10:39.877Z,28.20
2019-04-22T16:13:15.092Z,27.70
2019-04-22T16:15:38.349Z,28.00
2019-04-22T16:18:07.363Z,28.70
2019-04-22T16:20:36.368Z,28.30
2019-04-22T16:23:24.631Z,28.50
2019-04-22T16:25:53.437Z,28.20
2019-04-22T16:28:21.722Z,28.00
2019-04-22T16:30:50.963Z,28.60
2019-04-22T16:33:19.373Z,28.50
2019-04-22T16:35:48.845Z,28.40
2019-04-22T16:38:17.096Z,28.60
2019-04-22T16:40:45.224Z,28.80
2019-04-22T16:43:13.550Z,28.60
2019-04-22T16:45:41.732Z,29.30
2019-04-22T16:48:09.791Z,28.30
2019-04-22T16:50:42.772Z,28.10
2019-04-22T16:53:08.559Z,28.20
2019-04-22T16:55:36.903Z,28.10
2019-04-22T16:58:05.423Z,27.60
2019-04-22T17:00:36.913Z,27.70
2019-04-22T17:03:08.792Z,26.90
2019-04-22T17:05:57.322Z,26.50
2019-04-22T17:08:26.605Z,27.60
2019-04-22T17:10:55.824Z,28.20
2019-04-22T17:13:29.112Z,28.80
2019-04-22T17:15:58.577Z,28.40
2019-04-22T17:18:25.462Z,28.60
2019-04-22T17:20:55.007Z,28.80
2019-04-22T17:23:23.354Z,29.00
2019-04-22T17:25:52.471Z,29.00
2019-04-22T17:28:21.572Z,29.30
2019-04-22T17:30:49.836Z,29.40
2019-04-22T17:33:18.883Z,29.60
2019-04-22T17:35:48.870Z,30.00
2019-04-22T17:38:26.999Z,29.60
2019-04-22T17:41:02.601Z,29.90
2019-04-22T17:43:48.814Z,30.10
2019-04-22T17:46:12.045Z,30.10
2019-04-22T17:48:57.414Z,30.00
2019-04-22T17:51:49.972Z,30.00
2019-04-22T17:56:32.470Z,30.50
2019-04-22T17:58:57.162Z,30.70
2019-04-22T18:01:29.499Z,30.80
2019-04-22T18:03:45.470Z,30.70
2019-04-22T18:06:26.000Z,30.60
2019-04-22T18:08:57.509Z,31.10
2019-04-22T18:11:33.471Z,31.20
2019-04-22T18:14:02.736Z,31.10
2019-04-22T18:16:30.599Z,31.10
2019-04-22T18:19:00.255Z,30.80
2019-04-22T18:21:25.613Z,31.40
2019-04-22T18:23:49.325Z,31.20
2019-04-22T18:26:25.951Z,31.10
2019-04-22T18:28:54.124Z,31.10
2019-04-22T18:31:17.450Z,31.40
2019-04-22T18:33:50.285Z,31.10
2019-04-22T18:36:25.311Z,31.20
2019-04-22T18:39:04.256Z,31.10
2019-04-22T18:41:23.792Z,31.60
2019-04-22T18:43:58.724Z,31.20
2019-04-22T18:46:27.893Z,31.10
2019-04-22T18:48:58.142Z,31.30
2019-04-22T18:51:31.948Z,31.10
2019-04-22T18:54:00.222Z,31.50
2019-04-22T18:56:45.263Z,31.30
2019-04-22T18:59:07.694Z,31.00
2019-04-22T19:01:25.971Z,31.00
2019-04-22T19:04:04.358Z,31.30
2019-04-22T19:06:47.390Z,31.50
2019-04-22T19:09:20.428Z,31.00
2019-04-22T19:11:55.677Z,30.90
2019-04-22T19:14:17.579Z,30.70
2019-04-22T19:16:49.793Z,30.90
2019-04-22T19:19:29.872Z,31.00
2019-04-22T19:21:44.441Z,31.20
2019-04-22T19:24:17.378Z,31.30
2019-04-22T19:26:55.969Z,30.90
2019-04-22T19:29:16.872Z,31.60
2019-04-22T19:31:45.454Z,30.70
2019-04-22T19:34:16.474Z,30.60
2019-04-22T19:36:47.005Z,30.60
2019-04-22T19:39:12.071Z,30.70
2019-04-22T19:41:40.758Z,30.70
2019-04-22T19:44:13.170Z,30.60
2019-04-22T19:47:04.004Z,30.40
2019-04-22T19:49:23.813Z,30.60
2019-04-22T19:51:55.547Z,30.40
2019-04-22T19:54:14.002Z,30.80
2019-04-22T19:56:40.449Z,30.70
2019-04-22T19:59:15.598Z,31.30
2019-04-22T20:02:07.306Z,30.80
2019-04-22T20:04:46.310Z,30.60
2019-04-22T20:07:13.061Z,30.70
2019-04-22T20:09:50.546Z,30.90
2019-04-22T20:12:15.409Z,30.80
2019-04-22T20:14:46.445Z,30.90
2019-04-22T20:17:07.555Z,30.50
2019-04-22T20:19:52.701Z,30.50
2019-04-22T20:22:14.337Z,30.50
2019-04-22T20:24:28.435Z,30.80
2019-04-22T20:27:21.293Z,30.40
2019-04-22T20:29:47.890Z,30.50
2019-04-22T20:32:12.326Z,30.50
2019-04-22T20:34:44.369Z,30.70
2019-04-22T20:37:17.976Z,30.90
2019-04-22T20:39:48.666Z,31.00
2019-04-22T20:42:29.745Z,31.00
2019-04-22T20:44:46.034Z,31.50
2019-04-22T20:47:08.994Z,31.60
2019-04-22T20:49:44.977Z,30.90
2019-04-22T20:52:22.233Z,31.30
2019-04-22T20:54:40.453Z,31.30
2019-04-22T20:57:09.553Z,31.20
2019-04-22T20:59:47.217Z,32.00
2019-04-22T21:02:06.595Z,31.60
2019-04-22T21:04:35.926Z,31.90
2019-04-22T21:07:09.062Z,31.30
2019-04-22T21:09:43.114Z,30.70
2019-04-22T21:12:12.198Z,31.00
2019-04-22T21:14:53.589Z,31.30
2019-04-22T21:17:13.162Z,31.30
2019-04-22T21:19:56.860Z,31.30
2019-04-22T21:22:22.766Z,31.50
2019-04-22T21:24:45.980Z,31.80
2019-04-22T21:27:20.920Z,31.30
2019-04-22T21:29:43.650Z,31.60
2019-04-22T21:32:21.676Z,31.10
2019-04-22T21:34:56.267Z,31.40
2019-04-22T21:37:22.194Z,31.50
2019-04-22T21:39:44.858Z,31.70
2019-04-22T21:42:15.984Z,31.50
2019-04-22T21:44:45.580Z,31.30
2019-04-22T21:47:22.416Z,31.30
2019-04-22T21:49:56.689Z,31.40
2019-04-22T21:52:16.902Z,31.10
2019-04-22T21:54:53.882Z,31.20
2019-04-22T21:57:35.136Z,31.50
2019-04-22T22:00:03.483Z,31.60
2019-04-22T22:02:35.789Z,31.30
2019-04-22T22:04:54.248Z,31.30
2019-04-22T22:07:14.340Z,30.80
2019-04-22T22:10:00.427Z,30.60
2019-04-22T22:12:29.919Z,30.60
2019-04-22T22:15:03.707Z,31.20
2019-04-22T22:17:28.136Z,30.80
2019-04-22T22:19:57.892Z,31.00
2019-04-22T22:24:57.141Z,30.60
2019-04-22T22:27:30.089Z,30.40
2019-04-22T22:30:06.811Z,30.80
2019-04-22T22:32:30.284Z,30.50
2019-04-22T22:35:01.740Z,30.60
2019-04-22T22:37:16.333Z,30.60
2019-04-22T22:39:44.849Z,30.40
2019-04-22T22:42:05.999Z,30.80
2019-04-22T22:44:40.425Z,31.10
2019-04-22T22:47:27.363Z,30.60
2019-04-22T22:49:57.630Z,31.40
2019-04-22T22:52:45.211Z,30.70
2019-04-22T22:54:54.101Z,30.90
2019-04-22T22:57:27.740Z,30.40
2019-04-22T22:59:50.232Z,30.90
